createdAt,value
2022-11-12T00:01:05.722Z,75.60
2022-11-12T00:03:32.529Z,82.50
2022-11-12T00:05:59.386Z,88.20
2022-11-12T00:08:26.607Z,91.60
2022-11-12T00:10:53.583Z,99.90
2022-11-12T00:13:20.436Z,98.90
2022-11-12T00:15:47.775Z,93.70
2022-11-12T00:18:14.815Z,93.60
2022-11-12T00:20:41.859Z,93.80
2022-11-12T00:23:08.749Z,96.50
2022-11-12T00:25:35.798Z,97.80
2022-11-12T00:28:08.575Z,99.90
2022-11-12T00:30:38.832Z,99.90
2022-11-12T00:33:06.274Z,99.90
2022-11-12T00:35:34.147Z,99.90
2022-11-12T00:38:02.357Z,99.90
2022-11-12T00:40:29.845Z,99.90
2022-11-12T00:42:57.012Z,99.90
2022-11-12T00:45:23.960Z,99.90
2022-11-12T00:47:54.266Z,99.90
2022-11-12T00:50:21.246Z,99.90
2022-11-12T00:52:48.074Z,99.90
2022-11-12T00:55:14.953Z,99.90
2022-11-12T00:57:41.826Z,99.90
2022-11-12T01:00:14.950Z,99.90
2022-11-12T01:02:46.352Z,99.90
2022-11-12T01:05:16.751Z,99.90
2022-11-12T01:07:43.943Z,99.90
2022-11-12T01:10:11.664Z,99.90
2022-11-12T01:12:38.550Z,99.90
2022-11-12T01:15:06.642Z,99.90
2022-11-12T01:17:33.727Z,99.90
2022-11-12T01:20:00.613Z,99.90
2022-11-12T01:22:27.542Z,99.90
2022-11-12T01:24:54.372Z,99.90
2022-11-12T01:27:21.230Z,99.90
2022-11-12T01:29:48.087Z,99.90
2022-11-12T01:32:14.918Z,99.90
2022-11-12T01:34:41.734Z,99.90
2022-11-12T01:37:08.613Z,99.90
2022-11-12T01:39:35.442Z,99.90
2022-11-12T01:42:02.270Z,99.90
2022-11-12T01:44:32.028Z,99.90
2022-11-12T01:47:18.714Z,99.90
2022-11-12T01:49:54.053Z,99.90
2022-11-12T01:52:31.402Z,99.90
2022-11-12T01:55:04.973Z,99.90
2022-11-12T01:57:38.121Z,99.90
2022-11-12T02:00:09.554Z,99.90
2022-11-12T02:02:40.554Z,99.90
2022-11-12T02:05:11.172Z,99.90
2022-11-12T02:07:41.579Z,99.90
2022-11-12T02:10:10.036Z,99.90
2022-11-12T02:12:56.622Z,99.90
2022-11-12T02:15:23.501Z,99.90
2022-11-12T02:17:50.317Z,99.90
2022-11-12T02:20:17.770Z,99.90
2022-11-12T02:22:44.891Z,99.90
2022-11-12T02:25:16.193Z,99.90
2022-11-12T02:27:44.190Z,99.90
2022-11-12T02:30:12.153Z,99.90
2022-11-12T02:32:38.942Z,99.90
2022-11-12T02:35:06.287Z,99.90
2022-11-12T02:37:33.102Z,99.90
2022-11-12T02:40:00.101Z,99.90
2022-11-12T02:42:26.972Z,99.90
2022-11-12T02:44:53.955Z,99.90
2022-11-12T02:47:20.794Z,99.90
2022-11-12T02:49:47.621Z,99.90
2022-11-12T02:52:14.455Z,99.90
2022-11-12T02:54:41.283Z,99.90
2022-11-12T02:57:08.145Z,99.90
2022-11-12T02:59:34.945Z,99.90
2022-11-12T03:02:01.733Z,99.90
2022-11-12T03:04:28.581Z,99.90
2022-11-12T03:06:55.431Z,99.90
2022-11-12T03:09:22.383Z,99.90
2022-11-12T03:11:49.246Z,99.90
2022-11-12T03:14:16.074Z,99.90
2022-11-12T03:16:42.909Z,99.90
2022-11-12T03:19:09.765Z,99.90
2022-11-12T03:21:36.592Z,99.90
2022-11-12T03:24:03.503Z,99.90
2022-11-12T03:26:35.454Z,99.90
2022-11-12T03:29:02.849Z,99.90
2022-11-12T03:31:29.678Z,99.90
2022-11-12T03:33:56.555Z,99.90
2022-11-12T03:36:23.412Z,99.90
2022-11-12T03:38:50.212Z,99.90
2022-11-12T03:41:17.058Z,99.90
2022-11-12T03:43:43.875Z,99.90
2022-11-12T03:46:10.755Z,99.90
2022-11-12T03:48:38.086Z,99.90
2022-11-12T03:51:05.127Z,99.90
2022-11-12T03:53:31.968Z,99.90
2022-11-12T03:55:58.825Z,99.90
2022-11-12T03:58:25.910Z,99.90
2022-11-12T04:00:53.120Z,99.90
2022-11-12T04:03:20.090Z,99.90
2022-11-12T04:06:05.735Z,99.90
2022-11-12T04:08:38.702Z,99.90
2022-11-12T04:11:16.017Z,99.90
2022-11-12T04:13:47.791Z,99.90
2022-11-12T04:16:35.719Z,99.90
2022-11-12T04:19:23.854Z,99.90
2022-11-12T04:22:08.684Z,99.90
2022-11-12T04:25:01.715Z,99.90
2022-11-12T04:27:33.651Z,99.90
2022-11-12T04:30:19.566Z,99.90
2022-11-12T04:32:54.595Z,99.90
2022-11-12T04:35:23.479Z,99.90
2022-11-12T04:37:50.476Z,99.90
2022-11-12T04:40:36.837Z,99.90
2022-11-12T04:43:24.502Z,99.90
2022-11-12T04:45:53.662Z,99.90
2022-11-12T04:48:21.657Z,99.90
2022-11-12T04:50:54.340Z,99.90
2022-11-12T04:53:21.685Z,99.90
2022-11-12T04:55:52.637Z,99.90
2022-11-12T04:58:20.178Z,99.90
2022-11-12T05:00:47.871Z,99.90
2022-11-12T05:03:14.755Z,99.90
2022-11-12T05:05:41.739Z,99.90
2022-11-12T05:08:08.618Z,99.90
2022-11-12T05:10:35.620Z,99.90
2022-11-12T05:13:02.462Z,99.90
2022-11-12T05:15:29.318Z,99.90
2022-11-12T05:17:56.170Z,99.90
2022-11-12T05:20:23.316Z,99.90
2022-11-12T05:23:04.972Z,99.90
2022-11-12T05:25:34.407Z,99.90
2022-11-12T05:28:01.241Z,99.90
2022-11-12T05:30:28.041Z,99.90
2022-11-12T05:32:54.899Z,99.90
2022-11-12T05:35:21.708Z,99.90
2022-11-12T05:37:48.516Z,99.90
2022-11-12T05:40:15.511Z,99.90
2022-11-12T05:42:42.326Z,99.90
2022-11-12T05:45:09.632Z,99.90
2022-11-12T05:47:36.552Z,99.90
2022-11-12T05:50:03.889Z,99.90
2022-11-12T05:52:30.715Z,99.90
2022-11-12T05:54:57.563Z,99.90
2022-11-12T05:57:26.706Z,99.90
2022-11-12T05:59:53.509Z,99.90
2022-11-12T06:02:20.484Z,99.90
2022-11-12T06:04:47.316Z,99.90
2022-11-12T06:07:14.154Z,99.90
2022-11-12T06:09:41.070Z,99.90
2022-11-12T06:12:08.486Z,99.90
2022-11-12T06:14:35.415Z,99.90
2022-11-12T06:17:02.258Z,99.90
2022-11-12T06:19:29.097Z,99.90
2022-11-12T06:21:55.890Z,99.90
2022-11-12T06:24:22.986Z,99.90
2022-11-12T06:26:49.854Z,99.90
2022-11-12T06:29:16.603Z,99.90
2022-11-12T06:31:43.458Z,99.90
2022-11-12T06:34:12.452Z,99.90
2022-11-12T06:36:39.434Z,99.90
2022-11-12T06:39:06.465Z,99.90
2022-11-12T06:41:33.318Z,99.90
2022-11-12T06:44:00.144Z,99.90
2022-11-12T06:46:26.992Z,99.90
2022-11-12T06:48:53.828Z,99.90
2022-11-12T06:51:21.645Z,99.90
2022-11-12T06:53:49.369Z,99.90
2022-11-12T06:56:16.198Z,99.90
2022-11-12T06:58:43.507Z,99.90
2022-11-12T07:01:15.421Z,99.90
2022-11-12T07:03:44.139Z,99.90
2022-11-12T07:06:13.497Z,99.90
2022-11-12T07:08:41.281Z,99.90
2022-11-12T07:11:09.115Z,99.90
2022-11-12T07:13:36.786Z,99.90
2022-11-12T07:16:05.893Z,99.90
2022-11-12T07:18:34.608Z,99.90
2022-11-12T07:21:07.978Z,99.90
2022-11-12T07:23:36.592Z,99.90
2022-11-12T07:26:15.257Z,99.90
2022-11-12T07:28:42.642Z,99.90
2022-11-12T07:31:12.611Z,99.90
2022-11-12T07:33:39.718Z,99.90
2022-11-12T07:36:10.919Z,99.90
2022-11-12T07:38:39.232Z,99.90
2022-11-12T07:41:17.703Z,99.90
2022-11-12T07:43:47.138Z,99.90
2022-11-12T07:46:20.057Z,99.90
2022-11-12T07:48:47.719Z,99.90
2022-11-12T07:51:22.985Z,99.90
2022-11-12T07:53:53.742Z,99.90
2022-11-12T07:56:25.963Z,99.90
2022-11-12T07:58:53.184Z,99.90
2022-11-12T08:01:33.156Z,99.90
2022-11-12T08:04:01.685Z,99.90
2022-11-12T08:06:29.940Z,99.90
2022-11-12T08:08:58.311Z,99.90
2022-11-12T08:11:25.515Z,99.90
2022-11-12T08:13:52.718Z,99.90
2022-11-12T08:16:20.083Z,99.90
2022-11-12T08:18:47.625Z,99.90
2022-11-12T08:21:16.322Z,99.90
2022-11-12T08:23:43.300Z,99.90
2022-11-12T08:26:13.470Z,99.90
2022-11-12T08:28:40.646Z,99.90
2022-11-12T08:31:14.325Z,99.90
2022-11-12T08:33:42.027Z,99.90
2022-11-12T08:36:11.773Z,99.90
2022-11-12T08:38:39.399Z,99.90
2022-11-12T08:41:08.731Z,99.90
2022-11-12T08:43:36.087Z,99.90
2022-11-12T08:46:04.051Z,92.80
2022-11-12T08:48:34.399Z,84.00
2022-11-12T08:51:02.698Z,94.30
2022-11-12T08:53:29.549Z,97.60
2022-11-12T08:55:57.425Z,93.50
2022-11-12T08:58:25.802Z,99.90
2022-11-12T09:00:53.497Z,99.90
2022-11-12T09:03:22.588Z,99.90
2022-11-12T09:05:50.069Z,99.40
2022-11-12T09:08:20.199Z,93.80
2022-11-12T09:10:47.687Z,99.90
2022-11-12T09:13:14.671Z,94.00
2022-11-12T09:15:41.723Z,95.00
2022-11-12T09:18:13.417Z,99.90
2022-11-12T09:20:41.163Z,97.30
2022-11-12T09:23:15.921Z,99.90
2022-11-12T09:25:43.393Z,93.80
2022-11-12T09:28:12.845Z,89.40
2022-11-12T09:30:47.054Z,91.80
2022-11-12T09:33:19.074Z,94.30
2022-11-12T09:35:46.710Z,91.50
2022-11-12T09:38:18.028Z,90.50
2022-11-12T09:40:53.682Z,87.50
2022-11-12T09:43:23.477Z,95.30
2022-11-12T09:46:06.912Z,84.10
2022-11-12T09:48:44.979Z,70.60
2022-11-12T09:51:32.265Z,90.80
2022-11-12T09:54:02.762Z,94.90
2022-11-12T09:56:30.255Z,85.50
2022-11-12T09:58:57.301Z,67.90
2022-11-12T10:01:31.918Z,77.40
2022-11-12T10:04:20.324Z,70.70
2022-11-12T10:07:18.737Z,50.20
2022-11-12T10:10:08.965Z,41.60
2022-11-12T10:13:00.661Z,70.40
2022-11-12T10:16:00.918Z,57.40
2022-11-12T10:18:49.594Z,49.30
2022-11-12T10:21:29.820Z,34.60
2022-11-12T10:23:58.053Z,19.20
2022-11-12T10:26:26.458Z,20.50
2022-11-12T10:29:11.318Z,13.60
2022-11-12T10:31:38.976Z,18.20
2022-11-12T10:34:20.287Z,8.30
2022-11-12T10:36:55.289Z,15.90
2022-11-12T10:39:48.814Z,23.60
2022-11-12T10:42:17.885Z,8.80
2022-11-12T10:44:46.018Z,14.00
2022-11-12T10:47:38.982Z,13.60
2022-11-12T10:50:12.309Z,22.80
2022-11-12T10:52:39.323Z,43.60
2022-11-12T10:55:15.648Z,48.70
2022-11-12T10:57:42.641Z,49.50
2022-11-12T11:00:12.730Z,49.10
2022-11-12T11:02:53.975Z,51.00
2022-11-12T11:05:35.581Z,37.50
2022-11-12T11:08:03.664Z,35.50
2022-11-12T11:10:33.488Z,38.70
2022-11-12T11:13:09.348Z,33.90
2022-11-12T11:15:36.664Z,37.70
2022-11-12T11:18:03.537Z,21.40
2022-11-12T11:20:44.419Z,9.40
2022-11-12T11:23:28.934Z,11.90
2022-11-12T11:25:59.741Z,13.60
2022-11-12T11:29:09.768Z,21.90
2022-11-12T11:32:05.753Z,22.30
2022-11-12T11:34:45.233Z,24.70
2022-11-12T11:37:21.529Z,3.90
2022-11-12T11:40:08.716Z,1.00
2022-11-12T11:43:13.835Z,1.00
2022-11-12T11:46:01.524Z,1.00
2022-11-12T11:48:37.531Z,1.00
2022-11-12T11:51:38.191Z,1.00
2022-11-12T11:54:26.960Z,1.00
2022-11-12T11:56:58.623Z,1.00
2022-11-12T11:59:50.457Z,1.00
2022-11-12T12:02:54.971Z,1.90
2022-11-12T12:05:24.875Z,1.00
2022-11-12T12:07:58.944Z,1.00
2022-11-12T12:11:07.002Z,1.00
2022-11-12T12:13:51.272Z,1.00
2022-11-12T12:16:28.818Z,6.50
2022-11-12T12:19:27.025Z,13.50
2022-11-12T12:21:57.079Z,16.90
2022-11-12T12:24:40.531Z,14.50
2022-11-12T12:27:20.243Z,26.70
2022-11-12T12:29:57.013Z,28.50
2022-11-12T12:32:37.345Z,16.90
2022-11-12T12:35:23.034Z,11.60
2022-11-12T12:38:15.074Z,22.10
2022-11-12T12:40:48.322Z,19.00
2022-11-12T12:43:15.146Z,19.60
2022-11-12T12:45:43.029Z,21.50
2022-11-12T12:48:22.817Z,25.10
2022-11-12T12:50:59.186Z,29.40
2022-11-12T12:53:28.715Z,30.60
2022-11-12T12:56:06.881Z,26.00
2022-11-12T12:58:46.127Z,21.80
2022-11-12T13:01:22.524Z,23.80
2022-11-12T13:03:55.343Z,38.30
2022-11-12T13:06:22.340Z,38.00
2022-11-12T13:09:05.903Z,21.80
2022-11-12T13:12:00.427Z,14.60
2022-11-12T13:14:35.953Z,10.80
2022-11-12T13:17:08.943Z,7.40
2022-11-12T13:20:07.917Z,15.20
2022-11-12T13:22:40.858Z,3.90
2022-11-12T13:25:13.766Z,1.00
2022-11-12T13:27:40.897Z,1.00
2022-11-12T13:30:14.348Z,1.00
2022-11-12T13:32:48.490Z,1.00
2022-11-12T13:35:27.541Z,1.00
2022-11-12T13:38:09.498Z,1.00
2022-11-12T13:40:44.179Z,1.00
2022-11-12T13:43:17.561Z,1.00
2022-11-12T13:45:52.345Z,1.00
2022-11-12T13:48:34.408Z,1.00
2022-11-12T13:51:12.978Z,1.00
2022-11-12T13:53:39.889Z,1.00
2022-11-12T13:56:06.885Z,1.00
2022-11-12T13:58:35.889Z,1.00
2022-11-12T14:01:04.930Z,1.00
2022-11-12T14:03:45.662Z,1.00
2022-11-12T14:06:41.468Z,1.00
2022-11-12T14:09:18.546Z,1.00
2022-11-12T14:12:26.103Z,1.00
2022-11-12T14:14:55.725Z,1.00
2022-11-12T14:17:40.569Z,1.00
2022-11-12T14:20:32.851Z,1.00
2022-11-12T14:23:25.069Z,1.00
2022-11-12T14:25:54.201Z,1.00
2022-11-12T14:28:35.772Z,1.00
2022-11-12T14:31:04.965Z,1.00
2022-11-12T14:33:32.923Z,1.00
2022-11-12T14:36:05.366Z,1.00
2022-11-12T14:38:40.071Z,1.00
2022-11-12T14:41:24.675Z,1.00
2022-11-12T14:44:10.976Z,1.00
2022-11-12T14:46:46.850Z,1.00
2022-11-12T14:49:16.454Z,1.00
2022-11-12T14:52:06.152Z,1.00
2022-11-12T14:54:47.392Z,1.00
2022-11-12T14:57:33.058Z,2.00
2022-11-12T14:59:59.960Z,14.10
2022-11-12T15:02:47.212Z,23.30
2022-11-12T15:05:20.603Z,32.20
2022-11-12T15:07:55.054Z,47.30
2022-11-12T15:10:45.163Z,52.30
2022-11-12T15:13:38.699Z,61.50
2022-11-12T15:16:08.000Z,71.90
2022-11-12T15:18:36.935Z,81.70
2022-11-12T15:21:27.767Z,85.20
2022-11-12T15:24:05.829Z,90.80
2022-11-12T15:26:39.246Z,99.90
2022-11-12T15:29:15.398Z,99.90
2022-11-12T15:31:49.695Z,99.90
2022-11-12T15:34:30.354Z,99.90
2022-11-12T15:36:58.974Z,99.90
2022-11-12T15:39:27.885Z,99.90
2022-11-12T15:42:12.890Z,99.90
2022-11-12T15:44:39.781Z,99.90
2022-11-12T15:47:13.363Z,99.90
2022-11-12T15:49:54.408Z,99.90
2022-11-12T15:52:21.746Z,99.90
2022-11-12T15:54:48.973Z,99.90
2022-11-12T15:57:27.852Z,99.90
2022-11-12T16:00:08.382Z,99.90
2022-11-12T16:02:35.751Z,99.90
2022-11-12T16:05:02.569Z,99.90
2022-11-12T16:07:29.408Z,99.90
2022-11-12T16:09:56.282Z,99.90
2022-11-12T16:12:23.148Z,99.90
2022-11-12T16:14:50.038Z,99.90
2022-11-12T16:17:18.302Z,99.90
2022-11-12T16:19:45.189Z,99.90
2022-11-12T16:22:15.060Z,99.90
2022-11-12T16:24:42.550Z,99.90
2022-11-12T16:27:14.862Z,99.90
2022-11-12T16:29:41.917Z,99.90
2022-11-12T16:32:14.025Z,99.90
2022-11-12T16:34:40.902Z,99.90
2022-11-12T16:37:12.586Z,99.90
2022-11-12T16:39:39.778Z,99.90
2022-11-12T16:42:08.880Z,99.90
2022-11-12T16:44:35.703Z,99.90
2022-11-12T16:47:04.507Z,99.90
2022-11-12T16:49:35.881Z,99.90
2022-11-12T16:52:05.422Z,99.90
2022-11-12T16:54:32.293Z,99.90
2022-11-12T16:56:59.135Z,99.90
2022-11-12T16:59:25.923Z,99.90
2022-11-12T17:01:52.726Z,99.90
2022-11-12T17:04:19.553Z,99.90
2022-11-12T17:06:46.441Z,99.90
2022-11-12T17:09:13.365Z,99.90
2022-11-12T17:11:40.380Z,99.90
2022-11-12T17:14:07.672Z,99.90
2022-11-12T17:16:34.927Z,99.90
2022-11-12T17:19:02.380Z,99.90
2022-11-12T17:21:29.705Z,99.90
2022-11-12T17:23:58.025Z,99.90
2022-11-12T17:26:25.062Z,99.90
2022-11-12T17:28:59.205Z,99.90
2022-11-12T17:31:27.100Z,99.90
2022-11-12T17:33:54.060Z,99.90
2022-11-12T17:36:24.974Z,99.90
2022-11-12T17:38:58.981Z,99.90
2022-11-12T17:41:28.758Z,99.90
2022-11-12T17:44:00.201Z,99.90
2022-11-12T17:46:27.480Z,99.90
2022-11-12T17:48:55.935Z,99.90
2022-11-12T17:51:27.677Z,99.90
2022-11-12T17:53:54.543Z,99.90
2022-11-12T17:56:23.446Z,99.90
2022-11-12T17:58:51.191Z,99.90
2022-11-12T18:01:23.716Z,99.90
2022-11-12T18:03:52.995Z,99.90
2022-11-12T18:06:28.219Z,99.90
2022-11-12T18:09:11.709Z,99.90
2022-11-12T18:11:43.641Z,99.90
2022-11-12T18:14:10.553Z,99.90
2022-11-12T18:16:37.494Z,99.90
2022-11-12T18:19:04.799Z,99.90
2022-11-12T18:21:31.785Z,99.90
2022-11-12T18:23:58.588Z,99.90
2022-11-12T18:26:25.400Z,99.90
2022-11-12T18:28:56.543Z,99.90
2022-11-12T18:31:25.216Z,99.90
2022-11-12T18:33:53.901Z,99.90
2022-11-12T18:36:27.028Z,99.90
2022-11-12T18:38:54.727Z,99.90
2022-11-12T18:41:25.822Z,99.90
2022-11-12T18:43:53.870Z,99.90
2022-11-12T18:46:20.891Z,99.90
2022-11-12T18:48:48.160Z,99.90
2022-11-12T18:51:17.279Z,99.90
2022-11-12T18:53:45.703Z,99.90
2022-11-12T18:56:15.826Z,99.90
2022-11-12T18:58:42.663Z,99.90
2022-11-12T19:01:12.843Z,99.90
2022-11-12T19:03:39.747Z,99.90
2022-11-12T19:06:07.869Z,99.90
2022-11-12T19:08:35.186Z,99.90
2022-11-12T19:11:05.071Z,99.90
2022-11-12T19:13:32.563Z,99.90
2022-11-12T19:16:11.954Z,99.90
2022-11-12T19:18:40.289Z,99.90
2022-11-12T19:21:29.531Z,99.90
2022-11-12T19:23:57.508Z,99.90
2022-11-12T19:26:24.445Z,99.90
2022-11-12T19:28:51.731Z,99.90
2022-11-12T19:31:21.287Z,99.90
2022-11-12T19:33:48.580Z,99.90
2022-11-12T19:36:20.776Z,99.90
2022-11-12T19:38:48.113Z,99.90
2022-11-12T19:41:19.909Z,99.90
2022-11-12T19:43:47.545Z,99.90
2022-11-12T19:46:15.070Z,99.90
2022-11-12T19:48:42.036Z,99.90
2022-11-12T19:51:10.347Z,99.90
2022-11-12T19:53:44.721Z,99.90
2022-11-12T19:56:14.390Z,99.90
2022-11-12T19:58:45.485Z,99.90
2022-11-12T20:01:16.200Z,99.90
2022-11-12T20:03:43.513Z,99.90
2022-11-12T20:06:12.870Z,99.90
2022-11-12T20:08:39.723Z,99.90
2022-11-12T20:11:06.575Z,99.90
2022-11-12T20:13:33.507Z,99.90
2022-11-12T20:16:06.136Z,99.90
2022-11-12T20:18:33.084Z,99.90
2022-11-12T20:20:59.986Z,99.90
2022-11-12T20:23:27.185Z,99.90
2022-11-12T20:25:54.480Z,99.90
2022-11-12T20:28:21.352Z,99.90
2022-11-12T20:30:48.523Z,99.90
2022-11-12T20:33:15.392Z,99.90
2022-11-12T20:35:42.325Z,99.90
2022-11-12T20:38:09.124Z,99.90
2022-11-12T20:40:35.950Z,99.90
2022-11-12T20:43:02.810Z,99.90
2022-11-12T20:45:29.648Z,99.90
2022-11-12T20:47:56.517Z,99.90
2022-11-12T20:50:24.050Z,99.90
2022-11-12T20:52:51.034Z,99.90
2022-11-12T20:55:17.913Z,99.90
2022-11-12T20:57:44.871Z,99.90
2022-11-12T21:00:14.696Z,99.90
2022-11-12T21:02:42.871Z,99.90
2022-11-12T21:05:09.685Z,99.90
2022-11-12T21:07:36.519Z,99.90
2022-11-12T21:10:04.140Z,99.90
2022-11-12T21:12:31.105Z,99.90
2022-11-12T21:14:57.967Z,99.90
2022-11-12T21:17:24.883Z,99.90
2022-11-12T21:19:51.722Z,99.90
2022-11-12T21:22:18.752Z,99.90
2022-11-12T21:24:45.592Z,99.90
2022-11-12T21:27:12.493Z,99.90
2022-11-12T21:29:39.494Z,99.90
2022-11-12T21:32:06.378Z,99.90
2022-11-12T21:34:33.329Z,99.90
2022-11-12T21:37:01.416Z,99.90
2022-11-12T21:39:28.304Z,99.90
2022-11-12T21:41:55.187Z,99.90
2022-11-12T21:44:22.082Z,99.90
2022-11-12T21:46:48.924Z,99.90
2022-11-12T21:49:15.772Z,99.90
2022-11-12T21:51:42.684Z,99.90
2022-11-12T21:54:10.050Z,99.90
2022-11-12T21:56:38.015Z,99.90
2022-11-12T21:59:04.967Z,99.90
2022-11-12T22:01:34.357Z,99.90
2022-11-12T22:04:05.327Z,99.90
2022-11-12T22:06:35.252Z,99.90
2022-11-12T22:09:02.083Z,99.90
2022-11-12T22:11:28.972Z,99.90
2022-11-12T22:13:55.931Z,99.90
2022-11-12T22:16:25.598Z,99.90
2022-11-12T22:18:53.904Z,99.90
2022-11-12T22:21:26.067Z,99.90
2022-11-12T22:23:53.157Z,99.90
2022-11-12T22:26:23.071Z,99.90
2022-11-12T22:28:49.991Z,99.90
2022-11-12T22:31:19.975Z,99.90
2022-11-12T22:33:46.938Z,99.90
2022-11-12T22:36:20.978Z,99.90
2022-11-12T22:38:50.023Z,99.90
2022-11-12T22:41:28.489Z,99.90
2022-11-12T22:43:57.514Z,99.90
2022-11-12T22:46:26.991Z,99.90
2022-11-12T22:48:54.615Z,99.90
2022-11-12T22:51:24.146Z,99.90
2022-11-12T22:54:01.871Z,99.90
2022-11-12T22:56:29.421Z,99.90
2022-11-12T22:58:57.814Z,99.90
2022-11-12T23:01:34.206Z,99.90
2022-11-12T23:04:04.232Z,99.90
2022-11-12T23:06:31.832Z,99.90
2022-11-12T23:08:59.730Z,99.90
2022-11-12T23:11:26.832Z,99.90
2022-11-12T23:13:55.067Z,99.90
2022-11-12T23:16:25.375Z,99.90
2022-11-12T23:18:53.267Z,99.90
2022-11-12T23:21:23.142Z,99.90
2022-11-12T23:23:50.715Z,99.90
2022-11-12T23:26:20.933Z,99.90
2022-11-12T23:28:47.876Z,99.90
2022-11-12T23:31:23.666Z,99.90
2022-11-12T23:33:53.154Z,99.90
2022-11-12T23:36:20.604Z,99.90
2022-11-12T23:38:47.765Z,99.90
2022-11-12T23:41:17.444Z,99.90
2022-11-12T23:43:44.421Z,99.90
2022-11-12T23:46:12.133Z,99.90
2022-11-12T23:48:39.022Z,99.90
2022-11-12T23:51:08.264Z,99.90
2022-11-12T23:53:36.100Z,99.90
2022-11-12T23:56:03.634Z,99.90
2022-11-12T23:58:30.807Z,99.90
